Flight Track Log - Related Links

Times and Time Zones

All times are in EST time to prevent confusion due to time zone crossing. See the RBY709 flight status page for this flight to view local times or setup timezone preferences in your user account.


Time Position Orientation Groundspeed Altitude Reporting Facility
EST Latitude Longitude Course Direction KTS MPH feet Rate Location/Type
Sat 10:02:49 AM 30.3831 -88.9836 113° Southeast 287 330 2,600  Level Houston Center
Sat 10:03:51 AM 30.4242 -88.9078 58° Northeast 291 335 5,700 3,073 Climbing Houston Center
Sat 10:04:52 AM 30.4742 -88.8250 55° Northeast 307 353 8,900 2,878 Climbing Houston Center
Sat 10:05:54 AM 30.5367 -88.7111 57° Northeast 345 397 11,600 2,732 Climbing Houston Center
Sat 10:06:55 AM 30.5931 -88.6061 58° Northeast 378 435 14,500 2,754 Climbing Houston Center
Sat 10:07:00 AM 30.1988 -88.4929 113° Southeast  Level Estimated
Sat 10:07:56 AM 30.6517 -88.4972 58° Northeast 395 455 17,200  Level Houston Center
Sat 10:08:00 AM 30.1568 -88.3777 113° Southeast  Level Estimated
Sat 10:08:58 AM 30.7117 -88.3867 58° Northeast 405 466 19,300  Level Houston Center
Sat 10:09:59 AM 30.7356 -88.2556 78° East 421 484 21,000 1,574 Climbing Houston Center
Sat 10:11:00 AM 30.7464 -88.1133 85° East 445 512 22,500 1,512 Climbing Houston Center
Sat 10:12:02 AM 30.7556 -87.9494 86° East 470 541 24,100 1,512 Climbing Houston Center
Sat 10:13:03 AM 30.7644 -87.7906 86° East 490 564 25,600 1,672 Climbing Houston Center
Sat 10:14:04 AM 30.7750 -87.6108 86° East 504 580 27,500 1,636 Climbing Houston Center
Sat 10:15:04 AM 30.7844 -87.4406 86° East 496 571 28,900 1,350 Climbing Jacksonville Center
Sat 10:16:04 AM 30.7925 -87.2719 87° East 508 585 30,200 1,300 Climbing Jacksonville Center
Sat 10:17:04 AM 30.8044 -87.1008 85° East 521 600 31,500 1,350 Climbing Jacksonville Center
Sat 10:18:04 AM 30.8119 -86.9317 87° East 526 605 32,900 1,250 Climbing Jacksonville Center
Sat 10:19:04 AM 30.8258 -86.7558 85° East 531 611 34,000 1,050 Climbing Jacksonville Center
Sat 10:20:04 AM 30.8178 -86.6056 94° East 531 611 35,000 500 Climbing Jacksonville Center
Sat 10:21:04 AM 30.7975 -86.4356 98° East 531 611 35,000  Level Jacksonville Center
Sat 10:22:04 AM 30.7792 -86.2681 97° East 531 611 35,000  Level Jacksonville Center
Sat 10:23:04 AM 30.7606 -86.1006 97° East 526 605 35,000  Level Jacksonville Center
Sat 10:24:04 AM 30.7400 -85.9186 97° East 526 605 35,000  Level Jacksonville Center
Sat 10:25:04 AM 30.7208 -85.7489 97° East 526 605 35,000  Level Jacksonville Center
Sat 10:26:04 AM 30.6997 -85.5792 98° East 526 605 35,000  Level Jacksonville Center
Sat 10:27:04 AM 30.6800 -85.4119 98° East 521 600 35,000  Level Jacksonville Center
Sat 10:28:04 AM 30.6603 -85.2422 98° East 526 605 35,000  Level Jacksonville Center
Sat 10:29:04 AM 30.6425 -85.0778 97° East 521 600 35,000  Level Jacksonville Center
Sat 10:30:04 AM 30.6200 -84.9106 99° East 521 600 35,000  Level Jacksonville Center
Sat 10:31:04 AM 30.5997 -84.7411 98° East 526 605 35,000  Level Jacksonville Center
Sat 10:32:04 AM 30.5811 -84.5769 97° East 526 605 35,000  Level Jacksonville Center
Sat 10:33:04 AM 30.5539 -84.4147 101° East 520 598 35,000 -50 Level Jacksonville Center
Sat 10:34:04 AM 30.4611 -84.3119 136° Southeast 451 519 34,900  Descending Jacksonville Center
Sat 10:35:04 AM 30.3492 -84.2381 150° Southeast 435 501 35,000 50 Climbing Jacksonville Center
Sat 10:36:04 AM 30.2433 -84.1694 151° Southeast 441 507 35,000  Level Jacksonville Center
Sat 10:37:04 AM 30.1314 -84.0983 151° Southeast 446 513 35,000  Level Jacksonville Center
Sat 10:38:04 AM 30.0214 -84.0272 151° Southeast 451 519 35,000  Level Jacksonville Center
Sat 10:39:04 AM 29.9114 -83.9564 151° Southeast 456 525 35,000  Level Jacksonville Center
Sat 10:40:04 AM 29.8033 -83.8836 150° Southeast 456 525 35,000  Level Jacksonville Center
Sat 10:41:04 AM 29.6933 -83.8156 152° Southeast 451 519 35,000  Level Jacksonville Center
Sat 10:42:04 AM 29.5811 -83.7428 151° Southeast 456 525 35,000 -400 Level Jacksonville Center
Sat 10:43:04 AM 29.4728 -83.6703 150° Southeast 456 525 34,200 -2,000 Descending Jacksonville Center
Sat 10:44:04 AM 29.3731 -83.6050 150° Southeast 456 525 31,000 -3,250 Descending Jacksonville Center
Sat 10:45:04 AM 29.2608 -83.5353 152° Southeast 456 525 27,700 -2,700 Descending Jacksonville Center
Sat 10:46:04 AM 29.1525 -83.4656 151° Southeast 451 519 25,600 -1,950 Descending Jacksonville Center
Sat 10:47:04 AM 29.0464 -83.4008 152° Southeast 445 512 23,800 -1,800 Descending Jacksonville Center
Sat 10:48:04 AM 28.9400 -83.3317 150° Southeast 445 512 22,000 -1,800 Descending Jacksonville Center
Sat 10:49:04 AM 28.8422 -83.2669 150° Southeast 431 496 20,200 -1,704 Descending Jacksonville Center
Sat 10:50:46 AM 28.6667 -83.1667 153° Southeast 391 450 17,400 -1,630 Descending Tampa TRACON
Sat 10:51:46 AM 28.5833 -83.1000 145° Southeast 356 410 15,800 -1,600 Descending Tampa TRACON
Sat 10:52:46 AM 28.5000 -83.0500 152° Southeast 321 369 14,200 -1,737 Descending Tampa TRACON
Sat 10:53:40 AM 28.4333 -83.0167 156° South 300 345 12,500 -1,722 Descending Tampa TRACON
Sat 10:54:34 AM 28.3667 -82.9667 147° Southeast 284 327 11,100 -1,650 Descending Tampa TRACON
Sat 10:55:40 AM 28.2833 -82.9333 161° South 280 322 9,200 -1,667 Descending Tampa TRACON
Sat 10:56:40 AM 28.2167 -82.9000 156° South 280 322 7,600 -1,455 Descending Tampa TRACON
Sat 10:57:52 AM 28.1500 -82.8167 132° Southeast 267 307 6,000 -1,429 Descending Tampa TRACON
Sat 10:58:46 AM 28.1167 -82.7667 127° Southeast 250 288 4,600 -1,409 Descending Tampa TRACON
Sat 10:59:47 AM 28.0667 -82.7167 139° Southeast 221 254 3,300 -1,429 Descending Tampa TRACON
Sat 11:00:52 AM 28.0167 -82.6667 139° Southeast 204 235 1,600 -1,150 Descending Tampa TRACON
Sat 11:01:47 AM 27.9833 -82.6667 180° South 149 171 1,000 -550 Descending Tampa TRACON
Sat 11:02:41 AM 27.9500 -82.7000 221° Southwest 121 139 600 -444 Descending Tampa TRACON
Sat 11:04:00 AM 27.9100 -82.6875 190° South  Level Estimated
Sat 11:11:00 AM 27.9100 -82.6875 190° South  Level Estimated
Sat 11:12:00 AM 27.9100 -82.6875 190° South  Level Estimated

Login

Don't have an account? Register now (free) for customized features, flight alerts, and more!